Portada
METAR-TAF:

METAR-TAF

Aeroports :

Middleton Island, Alaska, Estats Units d'Amèrica

latitud: 59-26N, longitud: 146-18W, altitud: 27 m

Observació

L'informe es va fer fa 16 minuts, a les 22:51 UTC
Vent 14 kt del Oest amb ràfegues de 20 kt
Temperatura 13°C
Humitat 88%
Pressió 1000 hPa
Visibilitat: 16.1 km
Cel cobert a una alçada de 5500 ft

METAR: PAMD 092251Z AUTO 28014G20KT 10SM OVC055 13/11 A2954 RMK AO2 SLP992 T01330111

Hora: 15:07 (23:07 UTC)


TAF: manca

Observacions i pronòstics meteorològics de més de 4000 aeroports (METAR i TAF).

Les estacions disponibles són els punts grocs i vermells al mapa.

Posi el ratolí al punt desitjat per veure el nom de l'estació.

Feu clic per veure les observacions i els pronòstics meteorològics.

Per canviar el mapa: feu clic els botons verds amb una creu de color negre per apropar; al botó verd amb un guió per allunyar la imatge; o en les fletxes verdes per a mapes adjacents.


METAR-TAF: